sensor_id;sensor_type;location;lat;lon;timestamp;temperature;humidity
66962;HTU21D;53897;51.126;5.868;2023-04-24T00:00:27;23.09;45.55
66962;HTU21D;53897;51.126;5.868;2023-04-24T00:02:53;23.09;45.53
66962;HTU21D;53897;51.126;5.868;2023-04-24T00:05:23;23.08;45.46
66962;HTU21D;53897;51.126;5.868;2023-04-24T00:07:49;23.07;45.45
66962;HTU21D;53897;51.126;5.868;2023-04-24T00:10:18;23.06;45.38
66962;HTU21D;53897;51.126;5.868;2023-04-24T00:12:44;23.06;45.35
66962;HTU21D;53897;51.126;5.868;2023-04-24T00:15:11;23.05;45.32
66962;HTU21D;53897;51.126;5.868;2023-04-24T00:17:37;23.05;45.27
66962;HTU21D;53897;51.126;5.868;2023-04-24T00:20:04;23.02;45.23
66962;HTU21D;53897;51.126;5.868;2023-04-24T00:22:30;23.02;45.20
66962;HTU21D;53897;51.126;5.868;2023-04-24T00:24:57;23.01;45.15
66962;HTU21D;53897;51.126;5.868;2023-04-24T00:27:23;23.00;45.15
66962;HTU21D;53897;51.126;5.868;2023-04-24T00:29:49;22.98;45.15
66962;HTU21D;53897;51.126;5.868;2023-04-24T00:32:15;22.99;45.11
66962;HTU21D;53897;51.126;5.868;2023-04-24T00:34:41;22.97;45.04
66962;HTU21D;53897;51.126;5.868;2023-04-24T00:37:07;22.96;44.99
66962;HTU21D;53897;51.126;5.868;2023-04-24T00:39:33;22.96;44.98
66962;HTU21D;53897;51.126;5.868;2023-04-24T00:41:59;22.94;44.91
66962;HTU21D;53897;51.126;5.868;2023-04-24T00:44:25;22.94;44.91
66962;HTU21D;53897;51.126;5.868;2023-04-24T00:46:51;22.94;44.87
66962;HTU21D;53897;51.126;5.868;2023-04-24T00:49:22;22.92;44.83
66962;HTU21D;53897;51.126;5.868;2023-04-24T00:51:49;22.91;44.80
66962;HTU21D;53897;51.126;5.868;2023-04-24T00:54:17;22.91;44.74
66962;HTU21D;53897;51.126;5.868;2023-04-24T00:56:44;22.90;44.71
66962;HTU21D;53897;51.126;5.868;2023-04-24T00:59:16;22.87;44.67
66962;HTU21D;53897;51.126;5.868;2023-04-24T01:01:44;22.87;44.67
66962;HTU21D;53897;51.126;5.868;2023-04-24T01:04:11;22.87;44.64
66962;HTU21D;53897;51.126;5.868;2023-04-24T01:06:39;22.85;44.67
66962;HTU21D;53897;51.126;5.868;2023-04-24T01:09:05;22.85;44.65
66962;HTU21D;53897;51.126;5.868;2023-04-24T01:11:33;22.84;44.64
66962;HTU21D;53897;51.126;5.868;2023-04-24T01:13:59;22.84;44.60
66962;HTU21D;53897;51.126;5.868;2023-04-24T01:16:25;22.82;44.58
66962;HTU21D;53897;51.126;5.868;2023-04-24T01:18:53;22.82;44.56
66962;HTU21D;53897;51.126;5.868;2023-04-24T01:21:20;22.81;44.54
66962;HTU21D;53897;51.126;5.868;2023-04-24T01:23:46;22.79;44.55
66962;HTU21D;53897;51.126;5.868;2023-04-24T01:26:16;22.79;44.52
66962;HTU21D;53897;51.126;5.868;2023-04-24T01:28:42;22.77;44.48
66962;HTU21D;53897;51.126;5.868;2023-04-24T01:31:08;22.78;44.47
66962;HTU21D;53897;51.126;5.868;2023-04-24T01:33:34;22.77;44.40
66962;HTU21D;53897;51.126;5.868;2023-04-24T01:36:00;22.76;44.38
66962;HTU21D;53897;51.126;5.868;2023-04-24T01:38:26;22.75;44.36
66962;HTU21D;53897;51.126;5.868;2023-04-24T01:40:52;22.75;44.36
66962;HTU21D;53897;51.126;5.868;2023-04-24T01:43:18;22.75;44.32
66962;HTU21D;53897;51.126;5.868;2023-04-24T01:45:44;22.72;44.35
66962;HTU21D;53897;51.126;5.868;2023-04-24T01:48:11;22.72;44.32
66962;HTU21D;53897;51.126;5.868;2023-04-24T01:50:37;22.72;44.31
66962;HTU21D;53897;51.126;5.868;2023-04-24T01:53:03;22.71;44.25
66962;HTU21D;53897;51.126;5.868;2023-04-24T01:55:29;22.69;44.22
66962;HTU21D;53897;51.126;5.868;2023-04-24T01:57:56;22.69;44.22
66962;HTU21D;53897;51.126;5.868;2023-04-24T02:00:22;22.68;44.21
66962;HTU21D;53897;51.126;5.868;2023-04-24T02:02:51;22.67;44.21
66962;HTU21D;53897;51.126;5.868;2023-04-24T02:05:17;22.66;44.19
66962;HTU21D;53897;51.126;5.868;2023-04-24T02:07:43;22.65;44.18
66962;HTU21D;53897;51.126;5.868;2023-04-24T02:10:09;22.66;44.16
66962;HTU21D;53897;51.126;5.868;2023-04-24T02:12:36;22.64;44.13
66962;HTU21D;53897;51.126;5.868;2023-04-24T02:15:02;22.63;44.09
66962;HTU21D;53897;51.126;5.868;2023-04-24T02:17:28;22.63;44.11
66962;HTU21D;53897;51.126;5.868;2023-04-24T02:19:54;22.62;44.05
66962;HTU21D;53897;51.126;5.868;2023-04-24T02:22:19;22.61;44.05
66962;HTU21D;53897;51.126;5.868;2023-04-24T02:24:45;22.61;44.06
66962;HTU21D;53897;51.126;5.868;2023-04-24T02:27:14;22.58;44.06
66962;HTU21D;53897;51.126;5.868;2023-04-24T02:29:40;22.58;44.03
66962;HTU21D;53897;51.126;5.868;2023-04-24T02:32:06;22.58;44.04
66962;HTU21D;53897;51.126;5.868;2023-04-24T02:34:32;22.57;44.13
66962;HTU21D;53897;51.126;5.868;2023-04-24T02:36:59;22.57;44.14
66962;HTU21D;53897;51.126;5.868;2023-04-24T02:39:24;22.56;44.09
66962;HTU21D;53897;51.126;5.868;2023-04-24T02:41:51;22.55;44.06
66962;HTU21D;53897;51.126;5.868;2023-04-24T02:44:17;22.56;44.03
66962;HTU21D;53897;51.126;5.868;2023-04-24T02:46:43;22.54;44.00
66962;HTU21D;53897;51.126;5.868;2023-04-24T02:49:09;22.55;44.00
66962;HTU21D;53897;51.126;5.868;2023-04-24T02:51:34;22.52;44.03
66962;HTU21D;53897;51.126;5.868;2023-04-24T02:54:00;22.52;44.05
66962;HTU21D;53897;51.126;5.868;2023-04-24T02:56:26;22.52;44.07
66962;HTU21D;53897;51.126;5.868;2023-04-24T02:58:52;22.52;44.09
66962;HTU21D;53897;51.126;5.868;2023-04-24T03:01:18;22.51;44.09
66962;HTU21D;53897;51.126;5.868;2023-04-24T03:03:44;22.50;44.08
66962;HTU21D;53897;51.126;5.868;2023-04-24T03:06:09;22.49;44.03
66962;HTU21D;53897;51.126;5.868;2023-04-24T03:08:36;22.49;44.00
66962;HTU21D;53897;51.126;5.868;2023-04-24T03:11:02;22.47;43.94
66962;HTU21D;53897;51.126;5.868;2023-04-24T03:13:28;22.47;43.91
66962;HTU21D;53897;51.126;5.868;2023-04-24T03:15:53;22.47;43.87
66962;HTU21D;53897;51.126;5.868;2023-04-24T03:18:19;22.46;43.84
66962;HTU21D;53897;51.126;5.868;2023-04-24T03:20:47;22.44;43.82
66962;HTU21D;53897;51.126;5.868;2023-04-24T03:23:13;22.44;43.77
66962;HTU21D;53897;51.126;5.868;2023-04-24T03:25:39;22.44;43.80
66962;HTU21D;53897;51.126;5.868;2023-04-24T03:28:06;22.43;43.78
66962;HTU21D;53897;51.126;5.868;2023-04-24T03:30:52;22.42;43.75
66962;HTU21D;53897;51.126;5.868;2023-04-24T03:33:19;22.41;43.70
66962;HTU21D;53897;51.126;5.868;2023-04-24T03:35:54;22.41;43.69
66962;HTU21D;53897;51.126;5.868;2023-04-24T03:38:20;22.39;43.69
66962;HTU21D;53897;51.126;5.868;2023-04-24T03:40:55;22.39;43.67
66962;HTU21D;53897;51.126;5.868;2023-04-24T03:43:50;22.38;43.66
66962;HTU21D;53897;51.126;5.868;2023-04-24T03:46:16;22.38;43.74
66962;HTU21D;53897;51.126;5.868;2023-04-24T03:48:47;22.36;43.74
66962;HTU21D;53897;51.126;5.868;2023-04-24T03:51:16;22.37;43.80
66962;HTU21D;53897;51.126;5.868;2023-04-24T03:53:45;22.35;44.00
66962;HTU21D;53897;51.126;5.868;2023-04-24T03:56:14;22.32;44.14
66962;HTU21D;53897;51.126;5.868;2023-04-24T03:58:40;22.29;44.26
66962;HTU21D;53897;51.126;5.868;2023-04-24T04:01:06;22.25;44.38
66962;HTU21D;53897;51.126;5.868;2023-04-24T04:03:48;22.22;44.49
66962;HTU21D;53897;51.126;5.868;2023-04-24T04:06:17;22.19;44.59
66962;HTU21D;53897;51.126;5.868;2023-04-24T04:08:44;22.16;44.68
66962;HTU21D;53897;51.126;5.868;2023-04-24T04:11:10;22.13;44.75
66962;HTU21D;53897;51.126;5.868;2023-04-24T04:13:36;22.11;44.82
66962;HTU21D;53897;51.126;5.868;2023-04-24T04:16:01;22.09;44.87
66962;HTU21D;53897;51.126;5.868;2023-04-24T04:18:27;22.08;44.90
66962;HTU21D;53897;51.126;5.868;2023-04-24T04:20:53;22.07;44.93
66962;HTU21D;53897;51.126;5.868;2023-04-24T04:23:19;22.06;44.94
66962;HTU21D;53897;51.126;5.868;2023-04-24T04:26:17;22.09;44.96
66962;HTU21D;53897;51.126;5.868;2023-04-24T04:29:10;22.11;44.91
66962;HTU21D;53897;51.126;5.868;2023-04-24T04:31:41;22.13;44.83
66962;HTU21D;53897;51.126;5.868;2023-04-24T04:34:10;22.16;44.78
66962;HTU21D;53897;51.126;5.868;2023-04-24T04:36:37;22.18;44.73
66962;HTU21D;53897;51.126;5.868;2023-04-24T04:39:18;22.17;44.70
66962;HTU21D;53897;51.126;5.868;2023-04-24T04:41:55;22.18;44.70
66962;HTU21D;53897;51.126;5.868;2023-04-24T04:44:24;22.19;44.71
66962;HTU21D;53897;51.126;5.868;2023-04-24T04:46:51;22.19;44.65
66962;HTU21D;53897;51.126;5.868;2023-04-24T04:49:24;22.17;44.66
66962;HTU21D;53897;51.126;5.868;2023-04-24T04:51:50;22.17;44.64
66962;HTU21D;53897;51.126;5.868;2023-04-24T04:54:17;22.17;44.65
66962;HTU21D;53897;51.126;5.868;2023-04-24T04:56:42;22.14;44.64
66962;HTU21D;53897;51.126;5.868;2023-04-24T04:59:08;22.16;44.67
66962;HTU21D;53897;51.126;5.868;2023-04-24T05:01:36;22.17;44.65
66962;HTU21D;53897;51.126;5.868;2023-04-24T05:04:02;22.20;44.66
66962;HTU21D;53897;51.126;5.868;2023-04-24T05:06:28;22.21;44.64
66962;HTU21D;53897;51.126;5.868;2023-04-24T05:08:54;22.24;44.64
66962;HTU21D;53897;51.126;5.868;2023-04-24T05:11:32;22.24;44.64
66962;HTU21D;53897;51.126;5.868;2023-04-24T05:14:00;22.26;44.63
66962;HTU21D;53897;51.126;5.868;2023-04-24T05:16:34;22.28;44.58
66962;HTU21D;53897;51.126;5.868;2023-04-24T05:19:00;22.29;44.58
66962;HTU21D;53897;51.126;5.868;2023-04-24T05:21:31;22.32;44.59
66962;HTU21D;53897;51.126;5.868;2023-04-24T05:23:56;22.33;44.60
66962;HTU21D;53897;51.126;5.868;2023-04-24T05:26:37;22.34;44.63
66962;HTU21D;53897;51.126;5.868;2023-04-24T05:29:03;22.37;44.59
66962;HTU21D;53897;51.126;5.868;2023-04-24T05:31:30;22.37;44.54
66962;HTU21D;53897;51.126;5.868;2023-04-24T05:33:56;22.38;44.58
66962;HTU21D;53897;51.126;5.868;2023-04-24T05:36:22;22.38;44.55
66962;HTU21D;53897;51.126;5.868;2023-04-24T05:38:47;22.39;44.48
66962;HTU21D;53897;51.126;5.868;2023-04-24T05:41:14;22.40;44.39
66962;HTU21D;53897;51.126;5.868;2023-04-24T05:43:41;22.40;44.35
66962;HTU21D;53897;51.126;5.868;2023-04-24T05:46:06;22.40;44.34
66962;HTU21D;53897;51.126;5.868;2023-04-24T05:48:32;22.41;44.32
66962;HTU21D;53897;51.126;5.868;2023-04-24T05:51:00;22.40;44.38
66962;HTU21D;53897;51.126;5.868;2023-04-24T05:53:26;22.40;44.46
66962;HTU21D;53897;51.126;5.868;2023-04-24T05:55:52;22.39;44.57
66962;HTU21D;53897;51.126;5.868;2023-04-24T05:58:18;22.41;44.58
66962;HTU21D;53897;51.126;5.868;2023-04-24T06:00:46;22.41;44.53
66962;HTU21D;53897;51.126;5.868;2023-04-24T06:03:12;22.40;44.58
66962;HTU21D;53897;51.126;5.868;2023-04-24T06:05:38;22.40;44.54
66962;HTU21D;53897;51.126;5.868;2023-04-24T06:08:04;22.41;44.51
66962;HTU21D;53897;51.126;5.868;2023-04-24T06:10:34;22.39;44.49
66962;HTU21D;53897;51.126;5.868;2023-04-24T06:13:00;22.38;44.54
66962;HTU21D;53897;51.126;5.868;2023-04-24T06:15:29;22.37;44.75
66962;HTU21D;53897;51.126;5.868;2023-04-24T06:17:59;22.37;44.88
66962;HTU21D;53897;51.126;5.868;2023-04-24T06:20:25;22.37;44.88
66962;HTU21D;53897;51.126;5.868;2023-04-24T06:22:51;22.37;44.82
66962;HTU21D;53897;51.126;5.868;2023-04-24T06:25:17;22.37;44.87
66962;HTU21D;53897;51.126;5.868;2023-04-24T06:27:43;22.36;44.93
66962;HTU21D;53897;51.126;5.868;2023-04-24T06:30:09;22.35;44.99
66962;HTU21D;53897;51.126;5.868;2023-04-24T06:32:35;22.37;45.01
66962;HTU21D;53897;51.126;5.868;2023-04-24T06:35:00;22.36;44.99
66962;HTU21D;53897;51.126;5.868;2023-04-24T06:37:27;22.34;45.10
66962;HTU21D;53897;51.126;5.868;2023-04-24T06:39:52;22.35;45.16
66962;HTU21D;53897;51.126;5.868;2023-04-24T06:42:18;22.34;45.16
66962;HTU21D;53897;51.126;5.868;2023-04-24T06:44:48;22.33;45.10
66962;HTU21D;53897;51.126;5.868;2023-04-24T06:47:14;22.33;45.09
66962;HTU21D;53897;51.126;5.868;2023-04-24T06:49:41;22.33;45.12
66962;HTU21D;53897;51.126;5.868;2023-04-24T06:52:07;22.29;45.19
66962;HTU21D;53897;51.126;5.868;2023-04-24T06:54:33;22.25;45.34
66962;HTU21D;53897;51.126;5.868;2023-04-24T06:57:00;22.20;45.49
66962;HTU21D;53897;51.126;5.868;2023-04-24T06:59:28;22.13;45.61
66962;HTU21D;53897;51.126;5.868;2023-04-24T07:01:55;22.13;45.68
66962;HTU21D;53897;51.126;5.868;2023-04-24T07:04:21;22.13;45.61
66962;HTU21D;53897;51.126;5.868;2023-04-24T07:06:47;22.12;45.64
66962;HTU21D;53897;51.126;5.868;2023-04-24T07:09:15;22.10;45.68
66962;HTU21D;53897;51.126;5.868;2023-04-24T07:11:41;22.10;45.70
66962;HTU21D;53897;51.126;5.868;2023-04-24T07:14:08;22.09;45.73
66962;HTU21D;53897;51.126;5.868;2023-04-24T07:16:34;22.06;45.81
66962;HTU21D;53897;51.126;5.868;2023-04-24T07:19:00;22.05;45.79
66962;HTU21D;53897;51.126;5.868;2023-04-24T07:21:25;22.06;45.69
66962;HTU21D;53897;51.126;5.868;2023-04-24T07:23:52;22.08;45.68
66962;HTU21D;53897;51.126;5.868;2023-04-24T07:26:18;22.10;45.61
66962;HTU21D;53897;51.126;5.868;2023-04-24T07:28:44;22.11;45.57
66962;HTU21D;53897;51.126;5.868;2023-04-24T07:31:11;22.12;45.56
66962;HTU21D;53897;51.126;5.868;2023-04-24T07:33:37;22.12;45.54
66962;HTU21D;53897;51.126;5.868;2023-04-24T07:36:03;22.13;45.55
66962;HTU21D;53897;51.126;5.868;2023-04-24T07:38:30;22.13;45.56
66962;HTU21D;53897;51.126;5.868;2023-04-24T07:40:56;22.14;45.54
66962;HTU21D;53897;51.126;5.868;2023-04-24T07:43:22;22.16;45.51
66962;HTU21D;53897;51.126;5.868;2023-04-24T07:45:50;22.16;45.51
66962;HTU21D;53897;51.126;5.868;2023-04-24T07:48:16;22.16;45.52
66962;HTU21D;53897;51.126;5.868;2023-04-24T07:50:44;22.16;45.51
66962;HTU21D;53897;51.126;5.868;2023-04-24T07:53:10;22.16;45.44
66962;HTU21D;53897;51.126;5.868;2023-04-24T07:55:36;22.17;45.43
66962;HTU21D;53897;51.126;5.868;2023-04-24T07:58:02;22.17;45.49
66962;HTU21D;53897;51.126;5.868;2023-04-24T08:00:28;22.17;45.51
66962;HTU21D;53897;51.126;5.868;2023-04-24T08:02:53;22.16;45.50
66962;HTU21D;53897;51.126;5.868;2023-04-24T08:05:19;22.17;45.54
66962;HTU21D;53897;51.126;5.868;2023-04-24T08:07:46;22.18;45.61
66962;HTU21D;53897;51.126;5.868;2023-04-24T08:10:14;22.18;45.64
66962;HTU21D;53897;51.126;5.868;2023-04-24T08:12:41;22.20;45.67
66962;HTU21D;53897;51.126;5.868;2023-04-24T08:15:07;22.23;45.70
66962;HTU21D;53897;51.126;5.868;2023-04-24T08:17:36;22.24;45.73
66962;HTU21D;53897;51.126;5.868;2023-04-24T08:20:04;22.26;45.76
66962;HTU21D;53897;51.126;5.868;2023-04-24T08:22:31;22.27;45.83
66962;HTU21D;53897;51.126;5.868;2023-04-24T08:24:58;22.31;45.90
66962;HTU21D;53897;51.126;5.868;2023-04-24T08:27:23;22.32;45.92
66962;HTU21D;53897;51.126;5.868;2023-04-24T08:29:49;22.35;45.91
66962;HTU21D;53897;51.126;5.868;2023-04-24T08:32:16;22.37;45.92
66962;HTU21D;53897;51.126;5.868;2023-04-24T08:34:42;22.37;45.92
66962;HTU21D;53897;51.126;5.868;2023-04-24T08:37:07;22.39;45.70
66962;HTU21D;53897;51.126;5.868;2023-04-24T08:39:33;22.39;45.67
66962;HTU21D;53897;51.126;5.868;2023-04-24T08:41:59;22.40;45.68
66962;HTU21D;53897;51.126;5.868;2023-04-24T08:44:34;22.40;45.64
66962;HTU21D;53897;51.126;5.868;2023-04-24T08:47:04;22.41;45.61
66962;HTU21D;53897;51.126;5.868;2023-04-24T08:49:32;22.42;45.61
66962;HTU21D;53897;51.126;5.868;2023-04-24T08:51:58;22.41;45.59
66962;HTU21D;53897;51.126;5.868;2023-04-24T08:54:25;22.41;45.67
66962;HTU21D;53897;51.126;5.868;2023-04-24T08:56:53;22.40;46.02
66962;HTU21D;53897;51.126;5.868;2023-04-24T08:59:21;22.40;46.08
66962;HTU21D;53897;51.126;5.868;2023-04-24T09:01:49;22.40;46.13
66962;HTU21D;53897;51.126;5.868;2023-04-24T09:04:17;22.42;46.02
66962;HTU21D;53897;51.126;5.868;2023-04-24T09:06:45;22.42;45.87
66962;HTU21D;53897;51.126;5.868;2023-04-24T09:09:11;22.42;45.83
66962;HTU21D;53897;51.126;5.868;2023-04-24T09:11:37;22.42;45.83
66962;HTU21D;53897;51.126;5.868;2023-04-24T09:14:03;22.42;45.80
66962;HTU21D;53897;51.126;5.868;2023-04-24T09:16:30;22.42;45.78
66962;HTU21D;53897;51.126;5.868;2023-04-24T09:18:58;22.41;45.73
66962;HTU21D;53897;51.126;5.868;2023-04-24T09:21:24;22.42;45.71
66962;HTU21D;53897;51.126;5.868;2023-04-24T09:24:03;22.41;45.71
66962;HTU21D;53897;51.126;5.868;2023-04-24T09:26:30;22.40;45.66
66962;HTU21D;53897;51.126;5.868;2023-04-24T09:28:57;22.40;45.62
66962;HTU21D;53897;51.126;5.868;2023-04-24T09:31:23;22.40;45.58
66962;HTU21D;53897;51.126;5.868;2023-04-24T09:34:07;22.40;45.54
66962;HTU21D;53897;51.126;5.868;2023-04-24T09:36:37;22.39;45.62
66962;HTU21D;53897;51.126;5.868;2023-04-24T09:39:05;22.39;45.64
66962;HTU21D;53897;51.126;5.868;2023-04-24T09:41:33;22.39;45.64
66962;HTU21D;53897;51.126;5.868;2023-04-24T09:44:18;22.39;45.59
66962;HTU21D;53897;51.126;5.868;2023-04-24T09:46:52;22.38;45.59
66962;HTU21D;53897;51.126;5.868;2023-04-24T09:49:27;22.38;45.75
66962;HTU21D;53897;51.126;5.868;2023-04-24T09:52:07;22.38;45.84
66962;HTU21D;53897;51.126;5.868;2023-04-24T09:54:32;22.37;45.84
66962;HTU21D;53897;51.126;5.868;2023-04-24T09:56:59;22.38;45.87
66962;HTU21D;53897;51.126;5.868;2023-04-24T09:59:26;22.38;45.85
66962;HTU21D;53897;51.126;5.868;2023-04-24T10:01:51;22.37;45.84
66962;HTU21D;53897;51.126;5.868;2023-04-24T10:04:22;22.37;45.83
66962;HTU21D;53897;51.126;5.868;2023-04-24T10:06:51;22.36;45.82
66962;HTU21D;53897;51.126;5.868;2023-04-24T10:09:19;22.35;45.77
66962;HTU21D;53897;51.126;5.868;2023-04-24T10:11:47;22.36;45.73
66962;HTU21D;53897;51.126;5.868;2023-04-24T10:14:15;22.36;45.73
66962;HTU21D;53897;51.126;5.868;2023-04-24T10:16:43;22.36;45.68
66962;HTU21D;53897;51.126;5.868;2023-04-24T10:19:09;22.34;45.66
66962;HTU21D;53897;51.126;5.868;2023-04-24T10:21:36;22.34;45.68
66962;HTU21D;53897;51.126;5.868;2023-04-24T10:24:15;22.35;45.73
66962;HTU21D;53897;51.126;5.868;2023-04-24T10:26:42;22.35;45.80
66962;HTU21D;53897;51.126;5.868;2023-04-24T10:29:10;22.36;45.83
66962;HTU21D;53897;51.126;5.868;2023-04-24T10:31:37;22.35;45.82
66962;HTU21D;53897;51.126;5.868;2023-04-24T10:34:09;22.36;45.80
66962;HTU21D;53897;51.126;5.868;2023-04-24T10:36:38;22.36;45.82
66962;HTU21D;53897;51.126;5.868;2023-04-24T10:39:08;22.36;45.82
66962;HTU21D;53897;51.126;5.868;2023-04-24T10:41:37;22.36;45.85
66962;HTU21D;53897;51.126;5.868;2023-04-24T10:44:11;22.37;45.89
66962;HTU21D;53897;51.126;5.868;2023-04-24T10:46:39;22.37;45.90
66962;HTU21D;53897;51.126;5.868;2023-04-24T10:49:06;22.37;45.91
66962;HTU21D;53897;51.126;5.868;2023-04-24T10:52:03;22.36;45.85
66962;HTU21D;53897;51.126;5.868;2023-04-24T10:54:35;22.36;45.81
66962;HTU21D;53897;51.126;5.868;2023-04-24T10:59:52;22.38;45.87
66962;HTU21D;53897;51.126;5.868;2023-04-24T11:02:39;22.36;45.88
66962;HTU21D;53897;51.126;5.868;2023-04-24T11:05:06;22.35;45.86
66962;HTU21D;53897;51.126;5.868;2023-04-24T11:08:09;22.36;45.83
66962;HTU21D;53897;51.126;5.868;2023-04-24T11:10:43;22.35;45.80
66962;HTU21D;53897;51.126;5.868;2023-04-24T11:13:09;22.35;45.79
66962;HTU21D;53897;51.126;5.868;2023-04-24T11:15:35;22.35;45.79
66962;HTU21D;53897;51.126;5.868;2023-04-24T11:18:01;22.35;45.81
66962;HTU21D;53897;51.126;5.868;2023-04-24T11:20:27;22.35;45.82
66962;HTU21D;53897;51.126;5.868;2023-04-24T11:22:54;22.34;45.88
66962;HTU21D;53897;51.126;5.868;2023-04-24T11:25:21;22.35;45.88
66962;HTU21D;53897;51.126;5.868;2023-04-24T11:27:49;22.34;45.93
66962;HTU21D;53897;51.126;5.868;2023-04-24T11:30:20;22.35;45.93
66962;HTU21D;53897;51.126;5.868;2023-04-24T11:32:50;22.34;45.91
66962;HTU21D;53897;51.126;5.868;2023-04-24T11:35:23;22.34;45.87
66962;HTU21D;53897;51.126;5.868;2023-04-24T11:37:53;22.35;45.86
66962;HTU21D;53897;51.126;5.868;2023-04-24T11:40:21;22.35;45.85
66962;HTU21D;53897;51.126;5.868;2023-04-24T11:42:52;22.35;45.82
66962;HTU21D;53897;51.126;5.868;2023-04-24T11:45:29;22.36;45.83
66962;HTU21D;53897;51.126;5.868;2023-04-24T11:47:55;22.36;45.83
66962;HTU21D;53897;51.126;5.868;2023-04-24T11:50:23;22.36;45.82
66962;HTU21D;53897;51.126;5.868;2023-04-24T11:52:51;22.39;45.77
66962;HTU21D;53897;51.126;5.868;2023-04-24T11:57:55;22.36;45.77
66962;HTU21D;53897;51.126;5.868;2023-04-24T12:00:27;22.36;45.77
66962;HTU21D;53897;51.126;5.868;2023-04-24T12:03:08;22.37;45.76
66962;HTU21D;53897;51.126;5.868;2023-04-24T12:05:34;22.36;45.77
66962;HTU21D;53897;51.126;5.868;2023-04-24T12:08:01;22.37;45.75
66962;HTU21D;53897;51.126;5.868;2023-04-24T12:10:28;22.35;45.74
66962;HTU21D;53897;51.126;5.868;2023-04-24T12:12:56;22.35;45.73
66962;HTU21D;53897;51.126;5.868;2023-04-24T12:15:23;22.36;45.77
66962;HTU21D;53897;51.126;5.868;2023-04-24T12:17:51;22.35;45.74
66962;HTU21D;53897;51.126;5.868;2023-04-24T12:20:30;22.35;45.75
66962;HTU21D;53897;51.126;5.868;2023-04-24T12:22:57;22.36;45.75
66962;HTU21D;53897;51.126;5.868;2023-04-24T12:25:25;22.36;45.76
66962;HTU21D;53897;51.126;5.868;2023-04-24T12:28:08;22.34;45.77
66962;HTU21D;53897;51.126;5.868;2023-04-24T12:30:47;22.34;45.78
66962;HTU21D;53897;51.126;5.868;2023-04-24T12:33:21;22.35;45.78
66962;HTU21D;53897;51.126;5.868;2023-04-24T12:35:48;22.34;45.76
66962;HTU21D;53897;51.126;5.868;2023-04-24T12:38:22;22.35;45.75
66962;HTU21D;53897;51.126;5.868;2023-04-24T12:40:47;22.35;45.73
66962;HTU21D;53897;51.126;5.868;2023-04-24T12:43:18;22.35;45.75
66962;HTU21D;53897;51.126;5.868;2023-04-24T12:45:45;22.33;45.73
66962;HTU21D;53897;51.126;5.868;2023-04-24T12:48:11;22.34;45.73
66962;HTU21D;53897;51.126;5.868;2023-04-24T12:50:38;22.33;45.72
66962;HTU21D;53897;51.126;5.868;2023-04-24T12:53:04;22.34;45.72
66962;HTU21D;53897;51.126;5.868;2023-04-24T12:55:29;22.34;45.73
66962;HTU21D;53897;51.126;5.868;2023-04-24T12:57:55;22.33;45.71
66962;HTU21D;53897;51.126;5.868;2023-04-24T13:00:21;22.33;45.72
66962;HTU21D;53897;51.126;5.868;2023-04-24T13:02:47;22.33;45.65
66962;HTU21D;53897;51.126;5.868;2023-04-24T13:05:13;22.33;45.57
66962;HTU21D;53897;51.126;5.868;2023-04-24T13:07:39;22.32;45.50
66962;HTU21D;53897;51.126;5.868;2023-04-24T13:10:06;22.31;45.48
66962;HTU21D;53897;51.126;5.868;2023-04-24T13:12:32;22.31;45.51
66962;HTU21D;53897;51.126;5.868;2023-04-24T13:14:58;22.29;45.51
66962;HTU21D;53897;51.126;5.868;2023-04-24T13:17:24;22.28;45.49
66962;HTU21D;53897;51.126;5.868;2023-04-24T13:19:51;22.28;45.51
66962;HTU21D;53897;51.126;5.868;2023-04-24T13:22:17;22.27;45.52
66962;HTU21D;53897;51.126;5.868;2023-04-24T13:24:47;22.29;45.51
66962;HTU21D;53897;51.126;5.868;2023-04-24T13:27:15;22.28;45.50
66962;HTU21D;53897;51.126;5.868;2023-04-24T13:29:41;22.27;45.47
66962;HTU21D;53897;51.126;5.868;2023-04-24T13:32:08;22.29;45.46
66962;HTU21D;53897;51.126;5.868;2023-04-24T13:34:34;22.28;45.47
66962;HTU21D;53897;51.126;5.868;2023-04-24T13:37:03;22.28;45.49
66962;HTU21D;53897;51.126;5.868;2023-04-24T13:39:29;22.29;45.52
66962;HTU21D;53897;51.126;5.868;2023-04-24T13:41:55;22.29;45.56
66962;HTU21D;53897;51.126;5.868;2023-04-24T13:44:22;22.31;45.77
66962;HTU21D;53897;51.126;5.868;2023-04-24T13:46:51;22.31;46.15
66962;HTU21D;53897;51.126;5.868;2023-04-24T13:49:20;22.32;46.49
66962;HTU21D;53897;51.126;5.868;2023-04-24T13:51:46;22.33;46.89
66962;HTU21D;53897;51.126;5.868;2023-04-24T13:54:13;22.33;47.18
66962;HTU21D;53897;51.126;5.868;2023-04-24T13:56:39;22.35;47.63
66962;HTU21D;53897;51.126;5.868;2023-04-24T13:59:06;22.35;47.73
66962;HTU21D;53897;51.126;5.868;2023-04-24T14:01:32;22.34;47.96
66962;HTU21D;53897;51.126;5.868;2023-04-24T14:03:57;22.36;48.29
66962;HTU21D;53897;51.126;5.868;2023-04-24T14:06:23;22.36;48.46
66962;HTU21D;53897;51.126;5.868;2023-04-24T14:08:50;22.37;48.54
66962;HTU21D;53897;51.126;5.868;2023-04-24T14:11:16;22.38;48.53
66962;HTU21D;53897;51.126;5.868;2023-04-24T14:13:43;22.38;48.49
66962;HTU21D;53897;51.126;5.868;2023-04-24T14:16:09;22.40;48.43
66962;HTU21D;53897;51.126;5.868;2023-04-24T14:18:35;22.39;48.37
66962;HTU21D;53897;51.126;5.868;2023-04-24T14:21:02;22.41;47.80
66962;HTU21D;53897;51.126;5.868;2023-04-24T14:23:28;22.41;47.82
66962;HTU21D;53897;51.126;5.868;2023-04-24T14:25:54;22.42;47.83
66962;HTU21D;53897;51.126;5.868;2023-04-24T14:28:20;22.42;47.80
66962;HTU21D;53897;51.126;5.868;2023-04-24T14:30:47;22.42;47.87
66962;HTU21D;53897;51.126;5.868;2023-04-24T14:33:12;22.44;47.89
66962;HTU21D;53897;51.126;5.868;2023-04-24T14:35:39;22.44;47.96
66962;HTU21D;53897;51.126;5.868;2023-04-24T14:38:05;22.47;47.96
66962;HTU21D;53897;51.126;5.868;2023-04-24T14:40:31;22.47;47.92
66962;HTU21D;53897;51.126;5.868;2023-04-24T14:42:58;22.47;47.89
66962;HTU21D;53897;51.126;5.868;2023-04-24T14:45:24;22.49;47.93
66962;HTU21D;53897;51.126;5.868;2023-04-24T14:47:50;22.48;47.91
66962;HTU21D;53897;51.126;5.868;2023-04-24T14:50:16;22.49;47.89
66962;HTU21D;53897;51.126;5.868;2023-04-24T14:52:42;22.49;47.88
66962;HTU21D;53897;51.126;5.868;2023-04-24T14:55:08;22.51;47.83
66962;HTU21D;53897;51.126;5.868;2023-04-24T14:57:34;22.51;47.80
66962;HTU21D;53897;51.126;5.868;2023-04-24T15:00:05;22.50;47.72
66962;HTU21D;53897;51.126;5.868;2023-04-24T15:02:35;22.50;47.63
66962;HTU21D;53897;51.126;5.868;2023-04-24T15:05:06;22.51;47.54
66962;HTU21D;53897;51.126;5.868;2023-04-24T15:07:31;22.51;47.57
66962;HTU21D;53897;51.126;5.868;2023-04-24T15:09:58;22.52;47.53
66962;HTU21D;53897;51.126;5.868;2023-04-24T15:12:24;22.50;47.50
66962;HTU21D;53897;51.126;5.868;2023-04-24T15:14:50;22.51;47.44
66962;HTU21D;53897;51.126;5.868;2023-04-24T15:17:16;22.51;47.42
66962;HTU21D;53897;51.126;5.868;2023-04-24T15:19:41;22.51;47.33
66962;HTU21D;53897;51.126;5.868;2023-04-24T15:22:07;22.52;47.24
66962;HTU21D;53897;51.126;5.868;2023-04-24T15:24:33;22.52;47.12